Tiempo atmosférico en la estación meteorológica de Camaleño, Fuente De, Cantabria (1090 m.)



Fecha
DESCASC
Temp. máxima en grados centígrados (hora)
DESCASC
Temp. mínima en grados centígrados (hora)
DESCASC
Temp. media en grados centígrados
DESCASC
Racha de viento máxima en m/sg (hora)
DESCASC
Velocidad máxima media en intervalos de 10 minutos(hora)
DESCASC
Precipitaciones diarias en mm
DESCASC
Precipitaciones de 00:00 a 06:00 en mm
DESCASC
Precipitaciones de 06:00 a 12:00 en mm
DESCASC
Precipitaciones de 12:00 a 18:00 en mm
DESCASC
Precipitaciones de 18:00 a 24:00 en mm
DESCASC
15-11-2018 16.3 (14:30) 7 (23:50) 11.6 7.22 (00:50) 3.06 (00:50) 0 0 0 0 0
14-11-2018 18.2 (14:50) 6.7 (06:50) 12.5 6.39 (23:40) 2.5 (12:50) 0 0 0 0 0
13-11-2018 14.3 (15:00) 1.6 (07:20) 8 6.11 (15:10) 2.22 (15:20) 0.2 0 0.2 0 0
12-11-2018 8.8 (15:00) 4.9 (23:59) 6.9 4.44 (01:50) 1.39 (01:50) 2.4 1.6 0.8 0 0
11-11-2018 10.7 (11:20) 5.6 (00:00) 8.1 8.33 (03:10) 3.06 (07:30) 26 0.6 1.2 14.4 9.8
10-11-2018 12.6 (11:10) 9 (00:00) 10.8 12.78 (23:30) 4.17 (12:20) 4.2 1 2.8 0.4 0
09-11-2018 11.5 (23:00) 0.5 (00:00) 6 20.28 (21:50) 5 (13:30) 3.2 0.2 0.2 2.8 0
08-11-2018 8.2 (13:10) 3.7 (00:00) 5.9 11.94 (04:30) 5.83 (04:30) 1.6 0 0.2 1.4 0
07-11-2018 10.7 (13:10) 3.9 (00:00) 7.3 10.83 (05:40) 3.33 (05:50) 8 7.4 0.6 0 0
06-11-2018 8.8 (21:30) 0.7 (00:00) 4.8 12.22 (03:00) 4.72 (11:40) 22.4 17 0 3.8 1.6
05-11-2018 9.8 (14:20) 0.7 (00:00) 5.3 6.94 (17:50) 2.22 (14:30) 42.2 3.4 0 0.6 38.2
04-11-2018 15 (12:20) 3.7 (00:00) 9.4 11.11 (21:10) 4.72 (21:10) -- 0 -- 0.6 3.4
03-11-2018 13.6 (14:10) 0.4 (00:00) 7 3.33 (14:10) 1.39 (14:10) 0.2 0 0.2 0 0
02-11-2018 11.9 (14:10) 2.1 (00:00) 7 10 (05:20) 3.89 (05:10) 18 11.2 6.8 0 0
01-11-2018 8.3 (15:00) 0.5 (00:00) 4.4 7.22 (06:00) 3.61 (06:00) 11.4 0 0 0 11.4
31-10-2018 6.2 (12:20) 0.8 (00:00) 3.5 3.33 (21:40) 1.11 (11:20) 0.2 0 0.2 0 0
30-10-2018 7.3 (14:50) 0 (00:00) 3.7 8.89 (02:30) 3.33 (06:50) 14.6 2.2 6.2 6 0.2
29-10-2018 2.8 (12:40) -0.4 (00:00) 1.2 6.67 (02:20) 3.06 (03:20) -- -- 0.8 9.4 0.6
28-10-2018 2.1 (13:30) -1.1 (-00:0) 0.5 -- (--) -- (--) -- -- -- -- --
27-10-2018 7.2 (00:00) -0.5 (-00:0) 3.3 3.33 (14:20) 1.11 (03:00) 11.2 2 3.6 5.4 0.2
26-10-2018 13.3 (12:30) 7.2 (00:00) 10.3 3.61 (15:40) 1.67 (15:40) 1 0 0 0 1
25-10-2018 20.7 (16:00) 8.3 (00:00) 14.5 3.33 (14:30) 1.39 (13:30) 0 0 0 0 0
24-10-2018 19.9 (15:50) 5.4 (00:00) 12.6 3.61 (14:00) 1.39 (15:10) 0 0 0 0 0
23-10-2018 16.6 (16:30) 4.5 (00:00) 10.6 3.89 (13:20) 1.39 (13:50) 0 0 0 0 0
22-10-2018 14.3 (15:10) 4.8 (00:00) 9.6 7.22 (14:50) 2.5 (15:30) 0 0 0 0 0
21-10-2018 20.6 (15:40) 8.5 (00:00) 14.6 3.61 (13:40) 1.39 (13:00) 0 0 0 0 0
20-10-2018 17.8 (15:20) 5.7 (00:00) 11.7 2.78 (15:20) 1.39 (14:40) 0.2 0 0 0.2 0
19-10-2018 13.6 (14:20) 9.2 (00:00) 11.4 3.61 (15:20) 1.11 (14:40) 0 0 0 0 0
18-10-2018 12.9 (15:30) 8.9 (00:00) 10.9 2.78 (15:20) 1.39 (14:50) 2 0 0.4 0.2 1.4

Gráficas

Temp. máximas Temp. mínimas Temp. medias Precipitaciones Rachas de viento máximas Velocidades máximas media en intervalos de 10 minutos

Datos horarios

Fecha y hora oficial Temperatura (ºC) Velocidad del viento (km/h) Dirección del viento Racha (km/h) Dirección de racha Precipitación (mm) Presión (hPa) Tendencia (hPa) Humedad (%)
2018-11-16 23:00:00 10.9 8 Noroeste 17 Oeste 0 -- -- 69
2018-11-16 22:00:00 9.1 2 Sur 7 Sudoeste 0 -- -- 77
2018-11-16 21:00:00 8.5 0 Calma 6 Sudoeste 0 -- -- 80
2018-11-16 20:00:00 8.8 0 Calma 4 Noroeste 0 -- -- 79
2018-11-16 19:00:00 9.7 0 Calma 6 Noroeste 0 -- -- 75
2018-11-16 18:00:00 10.9 2 Oeste 5 Oeste 0 -- -- 73
2018-11-16 17:00:00 12.4 3 Oeste 7 Sudoeste 0 -- -- 68
2018-11-16 16:00:00 14 3 Sudoeste 7 Sudoeste 0 -- -- 66
2018-11-16 15:00:00 14.3 2 Sudeste 15 Noroeste 0 -- -- 62
2018-11-16 14:00:00 14.4 6 Oeste 16 Oeste 0 -- -- 57
2018-11-16 13:00:00 13.9 0 Calma 10 Sur 0 -- -- 63
2018-11-16 12:00:00 14 3 Este 10 Este 0 -- -- 62
2018-11-16 11:00:00 10.6 2 Este 6 Nordeste 0 -- -- 72
2018-11-16 10:00:00 7.7 0 Calma 3 Noroeste 0 -- -- 81
2018-11-16 09:00:00 6.2 0 Calma 3 Sudoeste 0 -- -- 87
2018-11-16 08:00:00 6.4 0 Calma 4 Sur 0 -- -- 84
2018-11-16 07:00:00 6.9 0 Calma 6 Oeste 0 -- -- 82
2018-11-16 06:00:00 7.4 0 Calma 7 Oeste 0 -- -- 82
2018-11-16 05:00:00 8.7 2 Noroeste 18 Este 0 -- -- 76
2018-11-16 04:00:00 7.7 3 Noroeste 15 Noroeste 0 -- -- 79
2018-11-16 03:00:00 7.5 0 Calma 6 Oeste 0 -- -- 81
2018-11-16 02:00:00 7.4 0 Calma 5 Oeste 0 -- -- 84
2018-11-16 01:00:00 7.3 0 Calma 8 Noroeste 0 -- -- 87
2018-11-16 00:00:00 7 0 Calma 5 Oeste 0 -- -- 93
2018-11-15 23:00:00 7.3 0 Calma 4 Oeste 0 -- -- 92
2018-11-15 22:00:00 7.9 0 Calma 5 Oeste 0 -- -- 90
2018-11-15 21:00:00 8.8 0 Calma 3 Noroeste 0 -- -- 88
2018-11-15 20:00:00 9.7 0 Calma 4 Oeste 0 -- -- 85
2018-11-15 19:00:00 11 0 Calma 4 Sur 0 -- -- 82
2018-11-15 18:00:00 11.8 0 Calma 5 Sudoeste 0 -- -- 76
2018-11-15 17:00:00 13 3 Sudoeste 6 Sudoeste 0 -- -- 70
2018-11-15 16:00:00 14.3 2 Este 10 Sudoeste 0 -- -- 63
2018-11-15 15:00:00 14.7 5 Sudoeste 14 Sudoeste 0 -- -- 54
2018-11-15 14:00:00 15.5 6 Oeste 18 Sudoeste 0 -- -- 53
2018-11-15 13:00:00 15 5 Sudeste 16 Oeste 0 -- -- 58
2018-11-15 12:00:00 14.8 3 Sudeste 19 Oeste 0 -- -- 55
2018-11-15 11:00:00 12.4 10 Sudoeste 23 Sudoeste 0 -- -- 68
2018-11-15 10:00:00 10.4 3 Noroeste 17 Oeste 0 -- -- 78
2018-11-15 09:00:00 8.1 0 Calma 8 Oeste 0 -- -- 85
2018-11-15 08:00:00 8.6 3 Oeste 10 Sudoeste 0 -- -- 81
2018-11-15 07:00:00 10.2 0 Calma 17 Sur 0 -- -- 74
2018-11-15 06:00:00 10.8 3 Sudeste 21 Nordeste 0 -- -- 73
2018-11-15 05:00:00 10.5 3 Este 14 Noroeste 0 -- -- 72
2018-11-15 04:00:00 11.9 5 Noroeste 22 Noroeste 0 -- -- 66
2018-11-15 03:00:00 12.1 7 Noroeste 24 Noroeste 0 -- -- 65
2018-11-15 02:00:00 12 7 Noroeste 19 Noroeste 0 -- -- 68
2018-11-15 01:00:00 12.3 9 Noroeste 26 Norte 0 -- -- 67
2018-11-15 00:00:00 11.5 9 Noroeste 23 Noroeste 0 -- -- 68
2018-11-14 23:00:00 10.3 3 Oeste 10 Noroeste 0 -- -- 71
2018-11-14 22:00:00 11.3 3 Sur 17 Noroeste 0 -- -- 62
2018-11-14 21:00:00 11.4 3 Sudoeste 14 Noroeste 0 -- -- 59
2018-11-14 20:00:00 10.2 2 Sudeste 6 Noroeste 0 -- -- 72
2018-11-14 19:00:00 10.7 0 Calma 4 Sudoeste 0 -- -- 71
2018-11-14 18:00:00 11.7 0 Calma 9 Oeste 0 -- -- 69
2018-11-14 17:00:00 12.8 0 Calma 10 Sudoeste 0 -- -- 61
2018-11-14 16:00:00 15.7 4 Sur 14 Oeste 0 -- -- 49
2018-11-14 15:00:00 18.1 4 Este 18 Oeste 0 -- -- 38
2018-11-14 14:00:00 17.6 9 Noroeste 22 Noroeste 0 -- -- 41
2018-11-14 13:00:00 17.9 5 Oeste 22 Oeste 0 -- -- 39
2018-11-14 12:00:00 16.3 2 Sur 8 Este 0 -- -- 49
2018-11-14 11:00:00 12.4 2 Sudeste 7 Este 0 -- -- 61
2018-11-14 10:00:00 9.2 2 Este 5 Noroeste 0 -- -- 73
2018-11-14 09:00:00 7.8 2 Sudoeste 5 Noroeste 0 -- -- 74
2018-11-14 08:00:00 7.2 0 Calma 5 Oeste 0 -- -- 74
2018-11-14 07:00:00 7 0 Calma 6 Sudoeste 0 -- -- 76
2018-11-14 06:00:00 7.5 0 Calma 5 Oeste 0 -- -- 78
2018-11-14 05:00:00 7.2 3 Oeste 6 Oeste 0 -- -- 79
2018-11-14 04:00:00 7.2 3 Oeste 8 Sudoeste 0 -- -- 79
2018-11-14 03:00:00 7 2 Oeste 6 Oeste 0 -- -- 81
2018-11-14 02:00:00 7.1 0 Calma 5 Oeste 0 -- -- 82
2018-11-14 01:00:00 7.5 2 Oeste 9 Sudoeste 0 -- -- 80
2018-11-14 00:00:00 7.7 0 Calma 8 Oeste 0 -- -- 79
2018-11-13 23:00:00 8.3 0 Calma 19 Sudoeste 0 -- -- 79
2018-11-13 22:00:00 7.3 4 Este 9 Noroeste 0 -- -- 85
2018-11-13 21:00:00 7 2 Sudoeste 12 Nordeste 0 -- -- 88
2018-11-13 20:00:00 7.2 3 Sudoeste 6 Oeste 0 -- -- 88
2018-11-13 19:00:00 7.7 2 Sudoeste 7 Oeste 0 -- -- 87
2018-11-13 18:00:00 9 3 Sur 12 Sur 0 -- -- 82
2018-11-13 17:00:00 11.4 4 Oeste 18 Sur 0 -- -- 67
2018-11-13 16:00:00 12.4 4 Sur 22 Norte 0 -- -- 67
2018-11-13 15:00:00 14.3 4 Sudeste 15 Norte 0 -- -- 59
2018-11-13 14:00:00 11.6 3 Noroeste 12 Sur 0 -- -- 70
2018-11-13 13:00:00 12.5 4 Sudoeste 13 Sur 0 -- -- 63
2018-11-13 12:00:00 10.5 2 Norte 6 Este 0 -- -- 71
2018-11-13 11:00:00 6 0 Calma 4 Norte 0.2 -- -- 99
2018-11-13 10:00:00 3.6 0 Calma 4 Noroeste 0 -- -- 100
2018-11-13 09:00:00 2.2 2 Noroeste 4 Noroeste 0 -- -- 100
2018-11-13 08:00:00 1.6 0 Calma 2 Sur 0 -- -- 100
2018-11-13 07:00:00 1.7 0 Calma 4 Sudoeste 0 -- -- 100
2018-11-13 06:00:00 2 0 Calma 4 Noroeste 0 -- -- 100
2018-11-13 05:00:00 2 0 Calma 3 Noroeste 0 -- -- 100
2018-11-13 04:00:00 2.4 0 Calma 4 Noroeste 0 -- -- 100
2018-11-13 03:00:00 2.9 0 Calma 4 Oeste 0 -- -- 99
2018-11-13 02:00:00 3.9 0 Calma 3 Oeste 0 -- -- 99
2018-11-13 01:00:00 4.3 0 Calma 4 Oeste 0 -- -- 99
2018-11-13 00:00:00 4.9 0 Calma 5 Sudoeste 0 -- -- 99
2018-11-12 23:00:00 5.3 0 Calma 7 Sur 0 -- -- 100
2018-11-12 22:00:00 5.8 0 Calma 4 Sudoeste 0 -- -- 100
2018-11-12 21:00:00 6.1 3 Sudoeste 6 Sudoeste 0 -- -- 99
2018-11-12 20:00:00 6.5 0 Calma 6 Sudoeste 0 -- -- 99
2018-11-12 19:00:00 6.8 0 Calma 5 Oeste 0 -- -- 97
2018-11-12 18:00:00 7.2 2 Sudoeste 7 Sur 0 -- -- 95
2018-11-12 17:00:00 7.9 3 Sudoeste 6 Sur 0 -- -- 91
2018-11-12 16:00:00 8.2 0 Calma 9 Sur 0 -- -- 91
2018-11-12 15:00:00 8.8 0 Calma 6 Sur 0 -- -- 90
2018-11-12 14:00:00 8.4 0 Calma 8 Sur 0 -- -- 87
2018-11-12 13:00:00 7.4 0 Calma 6 Sur 0 -- -- 93
2018-11-12 12:00:00 6.9 0 Calma 8 Sur 0 -- -- 99
2018-11-12 11:00:00 6.5 0 Calma 5 Este 0 -- -- 100
2018-11-12 10:00:00 5.8 0 Calma 5 Nordeste 0 -- -- 100
2018-11-12 09:00:00 5.5 2 Sudoeste 5 Sudoeste 0.4 -- -- 100
2018-11-12 08:00:00 5.3 0 Calma 3 Oeste 0.4 -- -- 100
2018-11-12 07:00:00 5.2 0 Calma 3 Noroeste 0 -- -- 100
2018-11-12 06:00:00 5.2 0 Calma 4 Sur 0.2 -- -- 100
2018-11-12 05:00:00 5.1 0 Calma 4 Noroeste 0.2 -- -- 100
2018-11-12 04:00:00 5.3 0 Calma 5 Sur 0 -- -- 100
2018-11-12 03:00:00 5.3 0 Calma 6 Oeste 0.2 -- -- 99
2018-11-12 02:00:00 6 4 Sudeste 16 Este 0.4 -- -- 94
2018-11-12 01:00:00 5.5 2 Sudoeste 14 Sur 0.6 -- -- 99
2018-11-12 00:00:00 5.6 3 Oeste 9 Oeste 1.4 -- -- 100
2018-11-11 23:00:00 5.7 3 Sur 9 Este 0.8 -- -- 100
2018-11-11 22:00:00 5.6 3 Noroeste 9 Oeste 1 -- -- 100
2018-11-11 21:00:00 5.6 0 Calma 6 Noroeste 2 -- -- 100
2018-11-11 20:00:00 5.7 3 Noroeste 6 Noroeste 1.4 -- -- 99
2018-11-11 19:00:00 6.1 2 Noroeste 9 Sudoeste 3.2 -- -- 98
2018-11-11 18:00:00 6.7 0 Calma 13 Noroeste 2.6 -- -- 97
2018-11-11 17:00:00 7.9 3 Sudoeste 6 Noroeste 1.6 -- -- 96
2018-11-11 16:00:00 8.7 0 Calma 7 Sudoeste 2.4 -- -- 98
2018-11-11 15:00:00 8.8 4 Sur 13 Sur 3.6 -- -- 96
2018-11-11 14:00:00 9.1 3 Sur 10 Este 3.2 -- -- 96
2018-11-11 13:00:00 9.9 3 Sudoeste 17 Sudoeste 1 -- -- 90
2018-11-11 12:00:00 10.4 4 Este 18 Sudeste 0.2 -- -- 82
2018-11-11 11:00:00 10.4 6 Este 18 Oeste 0.2 -- -- 79
2018-11-11 10:00:00 9.7 6 Este 22 Nordeste 0.2 -- -- 80
2018-11-11 09:00:00 9.9 8 Sudeste 24 Este 0.4 -- -- 76
2018-11-11 08:00:00 9.6 8 Sudeste 28 Sur 0.2 -- -- 76
2018-11-11 07:00:00 9.6 6 Nordeste 22 Nordeste 0 -- -- 73
2018-11-11 06:00:00 9.3 8 Sudeste 28 Este 0 -- -- 77
2018-11-11 05:00:00 8.9 7 Sudeste 22 Este 0.4 -- -- 83
2018-11-11 04:00:00 9.1 8 Sudeste 30 Sur 0 -- -- 80
2018-11-11 03:00:00 8.8 9 Este 29 Este 0 -- -- 81
2018-11-11 02:00:00 8.5 8 Sudeste 17 Sur 0.2 -- -- 83
2018-11-11 01:00:00 9 3 Sudeste 26 Nordeste 0 -- -- 78
2018-11-11 00:00:00 9.3 8 Sudeste 46 Norte 0 -- -- 68
2018-11-10 23:00:00 10 10 Sudeste 42 Sudoeste 0 -- -- 60
2018-11-10 22:00:00 9.5 8 Sudeste 35 Noroeste 0 -- -- 65
2018-11-10 21:00:00 9.7 13 Este 37 Nordeste 0 -- -- 60
2018-11-10 20:00:00 9.3 10 Sudeste 33 Sur 0 -- -- 60
2018-11-10 19:00:00 9.5 7 Este 40 Este 0 -- -- 62
2018-11-10 18:00:00 10.3 10 Sudeste 42 Sudeste 0 -- -- 60
2018-11-10 17:00:00 10.5 9 Este 29 Sur 0.2 -- -- 71
2018-11-10 16:00:00 11.1 9 Sudeste 32 Sudeste 0 -- -- 69
2018-11-10 15:00:00 11 10 Este 40 Este 0.2 -- -- 71
2018-11-10 14:00:00 10.3 9 Este 33 Este 0 -- -- 72
2018-11-10 13:00:00 11.4 13 Sudeste 35 Nordeste 0 -- -- 55
2018-11-10 12:00:00 11.4 12 Este 36 Este 0 -- -- 60
2018-11-10 11:00:00 12 8 Este 24 Sur 0 -- -- 49
2018-11-10 10:00:00 10.7 8 Sudeste 36 Sur 0 -- -- 60
2018-11-10 09:00:00 10.5 6 Sudeste 35 Este 1.2 -- -- 77
2018-11-10 08:00:00 9.9 8 Sudeste 23 Sudeste 0.6 -- -- 88
2018-11-10 07:00:00 9.7 8 Este 23 Nordeste 1 -- -- 89
2018-11-10 06:00:00 9.2 6 Este 18 Este 0.8 -- -- 93
2018-11-10 05:00:00 9.8 5 Sudeste 33 Nordeste 0.2 -- -- 86
2018-11-10 04:00:00 10.6 7 Norte 27 Este 0 -- -- 77
2018-11-10 03:00:00 10.2 7 Este 29 Este 0 -- -- 77
2018-11-10 02:00:00 10.7 5 Sudeste 45 Sur 0 -- -- 77
2018-11-10 01:00:00 10.9 11 Norte 36 Oeste 0 -- -- 71
2018-11-10 00:00:00 11.1 11 Norte 38 Noroeste 0 -- -- 68
2018-11-09 23:00:00 11.5 12 Norte 49 Noroeste 0 -- -- 66
2018-11-09 22:00:00 10.8 14 Noroeste 73 Nordeste 0 -- -- 68
2018-11-09 21:00:00 10.3 12 Este 40 Noroeste 0 -- -- 69
2018-11-09 20:00:00 10 12 Noroeste 52 Noroeste 0 -- -- 69
2018-11-09 19:00:00 9.7 10 Este 34 Sur 0 -- -- 69
2018-11-09 18:00:00 7.8 11 Sudeste 38 Sur 0.2 -- -- 76
2018-11-09 17:00:00 7.4 14 Sudeste 30 Este 0 -- -- 81
2018-11-09 16:00:00 4.9 10 Sudeste 31 Sur 2.6 -- -- 93
2018-11-09 15:00:00 5.8 14 Sur 39 Sur 0 -- -- 82
2018-11-09 14:00:00 7.7 13 Sudoeste 47 Sur 0 -- -- 66
2018-11-09 13:00:00 7.2 17 Sur 45 Sur 0 -- -- 60
2018-11-09 12:00:00 6 13 Sur 40 Sur 0 -- -- 63
2018-11-09 11:00:00 5.3 13 Sur 31 Sur 0 -- -- 67
2018-11-09 10:00:00 4.6 9 Sudoeste 25 Sur 0.2 -- -- 68
2018-11-09 09:00:00 0.6 0 Calma 5 Noroeste 0 -- -- 95
2018-11-09 08:00:00 0.6 0 Calma 8 Este 0 -- -- 96
2018-11-09 07:00:00 1.1 0 Calma 7 Noroeste 0 -- -- 97
2018-11-09 06:00:00 2 3 Oeste 9 Noroeste 0 -- -- 96
2018-11-09 05:00:00 3.2 0 Calma 6 Noroeste 0 -- -- 97
2018-11-09 04:00:00 3.4 0 Calma 6 Oeste 0.2 -- -- 95
2018-11-09 03:00:00 3.7 4 Noroeste 16 Sur 0 -- -- 89
2018-11-09 02:00:00 2.8 0 Calma 9 Norte 0 -- -- 84
2018-11-09 01:00:00 3.5 4 Sudoeste 15 Sudoeste 0 -- -- 84
2018-11-09 00:00:00 5.2 6 Oeste 16 Oeste 0 -- -- 73
2018-11-08 23:00:00 6.1 8 Sudoeste 19 Oeste 0 -- -- 74
2018-11-08 22:00:00 5.7 3 Sudoeste 10 Sudoeste 0 -- -- 86
2018-11-08 21:00:00 6.7 3 Sur 15 Este 0 -- -- 78
2018-11-08 20:00:00 6.9 6 Sudeste 14 Sur 0 -- -- 78
2018-11-08 19:00:00 5.5 4 Oeste 18 Sudeste 0 -- -- 92
2018-11-08 18:00:00 5.7 3 Sudoeste 16 Este 0.8 -- -- 91
2018-11-08 17:00:00 7.5 8 Este 25 Noroeste 0.2 -- -- 77
2018-11-08 16:00:00 7.7 5 Sudeste 36 Noroeste 0 -- -- 75
2018-11-08 15:00:00 7.4 9 Noroeste 27 Oeste 0.2 -- -- 77
2018-11-08 14:00:00 8 8 Noroeste 36 Norte 0 -- -- 65
2018-11-08 13:00:00 8 9 Este 36 Noroeste 0.2 -- -- 64
2018-11-08 12:00:00 7.5 10 Sur 37 Sudoeste 0.2 -- -- 69
2018-11-08 11:00:00 7.8 10 Sudoeste 31 Oeste 0 -- -- 67
2018-11-08 10:00:00 8.1 10 Nordeste 28 Norte 0 -- -- 60
2018-11-08 09:00:00 7.1 7 Este 30 Nordeste 0 -- -- 63
2018-11-08 08:00:00 6.7 9 Oeste 32 Sudeste 0 -- -- 62
2018-11-08 07:00:00 6.4 7 Este 42 Norte 0 -- -- 68
2018-11-08 06:00:00 6.3 5 Este 35 Noroeste 0 -- -- 65
2018-11-08 05:00:00 6.6 15 Noroeste 43 Noroeste 0 -- -- 57
2018-11-08 04:00:00 6.4 15 Noroeste 35 Oeste 0 -- -- 53
2018-11-08 03:00:00 3.7 3 Este 9 Oeste 0 -- -- 75
2018-11-08 02:00:00 4.7 4 Sudeste 13 Noroeste 0 -- -- 70
2018-11-08 01:00:00 5.6 5 Sudeste 22 Sudoeste 0 -- -- 63
2018-11-08 00:00:00 5.9 6 Noroeste 22 Norte 0 -- -- 64
2018-11-07 23:00:00 4.6 5 Noroeste 19 Noroeste 0 -- -- 67
2018-11-07 22:00:00 5.4 4 Sudeste 10 Noroeste 0 -- -- 62
2018-11-07 21:00:00 3.9 4 Sudoeste 15 Sudeste 0 -- -- 77
2018-11-07 20:00:00 4 4 Noroeste 9 Este 0 -- -- 81
2018-11-07 19:00:00 6.3 4 Sudoeste 12 Oeste 0 -- -- 68
2018-11-07 18:00:00 6.7 4 Sudeste 14 Sudoeste 0 -- -- 64
2018-11-07 17:00:00 8.1 2 Este 14 Sudoeste 0 -- -- 60
2018-11-07 16:00:00 8.8 5 Sur 22 Sudeste 0 -- -- 52
2018-11-07 15:00:00 9 6 Sur 22 Sudoeste 0 -- -- 45
2018-11-07 14:00:00 10 7 Sudeste 22 Oeste 0 -- -- 48
2018-11-07 13:00:00 10.5 9 Sur 32 Oeste 0 -- -- 50
2018-11-07 12:00:00 9.8 8 Sudoeste 28 Sudeste 0 -- -- 50
2018-11-07 11:00:00 8.5 10 Sur 33 Sudeste 0 -- -- 58
2018-11-07 10:00:00 7.4 12 Sur 28 Sur 0 -- -- 65
2018-11-07 09:00:00 7.2 8 Sudeste 26 Sudoeste 0 -- -- 69
2018-11-07 08:00:00 5.9 8 Sudeste 24 Sudoeste 0 -- -- 82
2018-11-07 07:00:00 6.1 8 Sudeste 24 Sur 0.6 -- -- 85
2018-11-07 06:00:00 7.7 8 Sur 39 Nordeste 0 -- -- 70
2018-11-07 05:00:00 7.4 10 Sudeste 33 Sudeste 2.2 -- -- 80
2018-11-07 04:00:00 6.6 4 Sudeste 16 Noroeste 1.4 -- -- 96
2018-11-07 03:00:00 6.8 5 Sudeste 16 Este 1.4 -- -- 93
2018-11-07 02:00:00 7.5 6 Sudeste 27 Sudeste 1.2 -- -- 88
2018-11-07 01:00:00 7.5 8 Este 25 Sudeste 1.2 -- -- 87
2018-11-07 00:00:00 8.2 8 Este 31 Este 0.8 -- -- 81
2018-11-06 23:00:00 8.5 8 Este 37 Sudeste 0.2 -- -- 78
2018-11-06 22:00:00 8.5 11 Este 41 Este 0 -- -- 75
2018-11-06 21:00:00 7.9 7 Sudoeste 27 Este 0 -- -- 79
2018-11-06 20:00:00 7.9 9 Este 37 Noroeste 0.4 -- -- 79
2018-11-06 19:00:00 7.5 14 Noroeste 40 Noroeste 0.2 -- -- 80
2018-11-06 18:00:00 6.9 9 Sur 31 Oeste 0.4 -- -- 81
2018-11-06 17:00:00 6.6 9 Sur 30 Sudoeste 0 -- -- 86
2018-11-06 16:00:00 6.7 13 Sur 35 Sudoeste 0 -- -- 79
2018-11-06 15:00:00 6.3 10 Sur 39 Sur 0.2 -- -- 81
2018-11-06 14:00:00 5.2 10 Sur 32 Sur 1 -- -- 86
2018-11-06 13:00:00 5.1 10 Sur 39 Sudoeste 2.2 -- -- 86
2018-11-06 12:00:00 5.5 10 Sur 41 Sur 0 -- -- 78
2018-11-06 11:00:00 5.8 9 Sudoeste 27 Sur 0 -- -- 60
2018-11-06 10:00:00 3.4 4 Noroeste 9 Noroeste 0 -- -- 82
2018-11-06 09:00:00 1 2 Oeste 9 Este 0 -- -- 95
2018-11-06 08:00:00 1.1 3 Oeste 8 Oeste 0 -- -- 96
2018-11-06 07:00:00 2.5 3 Sudoeste 15 Sudoeste 0 -- -- 90
2018-11-06 06:00:00 4 7 Sur 23 Sudoeste 0 -- -- 81
2018-11-06 05:00:00 4.3 6 Sur 19 Sudoeste 0 -- -- 88
2018-11-06 04:00:00 5.6 6 Nordeste 44 Noroeste 0.8 -- -- 80
2018-11-06 03:00:00 4.8 15 Oeste 44 Noroeste 4.2 -- -- 82
2018-11-06 02:00:00 3.2 5 Sur 28 Sudoeste 6.2 -- -- 95
2018-11-06 01:00:00 0.8 4 Sudoeste 8 Este 5.8 -- -- 100
2018-11-06 00:00:00 0.8 3 Sudoeste 9 Sudoeste 6.6 -- -- 100
2018-11-05 23:00:00 0.8 2 Sudeste 8 Oeste 4.8 -- -- 100
2018-11-05 22:00:00 1.1 2 Sudoeste 7 Sudoeste 4.8 -- -- 99
2018-11-05 21:00:00 1.1 4 Sur 9 Oeste 7.4 -- -- 99
2018-11-05 20:00:00 1.7 3 Oeste 10 Oeste 6.2 -- -- 97
2018-11-05 19:00:00 2.9 2 Oeste 16 Sur 8.4 -- -- 93
2018-11-05 18:00:00 5.4 6 Sur 25 Sur 0.6 -- -- 80
2018-11-05 17:00:00 7 5 Sudeste 22 Sur 0 -- -- 70
2018-11-05 16:00:00 8 5 Sudeste 18 Sudeste 0 -- -- 66
2018-11-05 15:00:00 9 6 Sur 24 Este 0 -- -- 61
2018-11-05 14:00:00 9.6 7 Sur 20 Oeste 0 -- -- 59
2018-11-05 13:00:00 9.6 4 Este 21 Oeste 0 -- -- 58
2018-11-05 12:00:00 7.1 6 Sudeste 16 Sur 0 -- -- 73
2018-11-05 11:00:00 6.4 3 Noroeste 8 Noroeste 0 -- -- 87
2018-11-05 10:00:00 4.8 3 Noroeste 6 Sudoeste 0 -- -- 98
2018-11-05 09:00:00 4.2 4 Sur 13 Sur 0 -- -- 98
2018-11-05 08:00:00 4.3 2 Sudoeste 13 Sudoeste 0 -- -- 97
2018-11-05 07:00:00 4.5 3 Sur 7 Sudeste 0 -- -- 98
2018-11-05 06:00:00 4.6 0 Calma 7 Sudoeste 0.2 -- -- 97
2018-11-05 05:00:00 5.2 3 Sudoeste 13 Noroeste 0.6 -- -- 95
2018-11-05 04:00:00 6.4 5 Este 18 Noroeste 0.4 -- -- 88
2018-11-05 03:00:00 6.9 8 Norte 23 Oeste 0.2 -- -- 85
2018-11-05 02:00:00 6.3 3 Sur 20 Sur 1 -- -- 92
2018-11-05 01:00:00 6.7 4 Norte 20 Noroeste 1 -- -- 88
2018-11-05 00:00:00 8.6 6 Norte 33 Noroeste 0.2 -- -- 79
2018-11-04 23:00:00 8.6 13 Noroeste 29 Oeste 0 -- -- 79
2018-11-04 22:00:00 8.2 13 Noroeste 40 Norte 0.2 -- -- 77
2018-11-04 21:00:00 7.5 10 Noroeste 31 Noroeste 2.2 -- -- 81
2018-11-04 20:00:00 8.2 8 Sudoeste 32 Noroeste 0.6 -- -- 77
2018-11-04 19:00:00 7.1 5 Sudoeste 22 Sudeste 0.2 -- -- 95
2018-11-04 18:00:00 9.1 6 Sur 21 Sur 0.6 -- -- 81
2018-11-04 17:00:00 10.4 8 Sur 26 Sur 0 -- -- 60
2018-11-04 16:00:00 11.4 6 Sudeste 22 Sur 0 -- -- 55
2018-11-04 15:00:00 12 6 Sudeste 29 Sur 0 -- -- 54
2018-11-04 14:00:00 12.8 7 Sur 31 Sudoeste 0 -- -- 53
2018-11-04 13:00:00 14.6 9 Sur -- -- -- -- -- 47
2018-11-04 12:00:00 -- -- -- -- -- -- -- -- --
2018-11-04 11:00:00 11.8 8 Sudoeste 30 Sudeste 0 -- -- 51
2018-11-04 10:00:00 8 3 Noroeste 9 Oeste 0 -- -- 67
2018-11-04 09:00:00 6.1 0 Calma 5 Oeste 0 -- -- 74
2018-11-04 08:00:00 5.7 0 Calma 4 Oeste 0 -- -- 78
2018-11-04 07:00:00 5.9 0 Calma 5 Sudoeste 0 -- -- 76
2018-11-04 06:00:00 4.4 2 Oeste 4 Oeste 0 -- -- 84
2018-11-04 05:00:00 3.7 3 Oeste 6 Oeste 0 -- -- 88
2018-11-04 04:00:00 4.1 0 Calma 4 Sudoeste 0 -- -- 85
2018-11-04 03:00:00 4.3 0 Calma 4 Noroeste 0 -- -- 84
2018-11-04 02:00:00 4.6 0 Calma 6 Oeste 0 -- -- 83
2018-11-04 01:00:00 4.6 0 Calma 5 Sudoeste 0 -- -- 83
2018-11-04 00:00:00 4.6 2 Oeste 5 Oeste 0 -- -- 83
2018-11-03 23:00:00 4.3 0 Calma 5 Oeste 0 -- -- 83
2018-11-03 22:00:00 4.1 0 Calma 6 Oeste 0 -- -- 81
2018-11-03 21:00:00 3.9 0 Calma 5 Noroeste 0 -- -- 79
2018-11-03 20:00:00 4.1 3 Sudoeste 6 Oeste 0 -- -- 78
2018-11-03 19:00:00 4.1 0 Calma 6 Oeste 0 -- -- 79
2018-11-03 18:00:00 4.9 2 Oeste 6 Oeste 0 -- -- 73
2018-11-03 17:00:00 6.1 3 Sudoeste 6 Oeste 0 -- -- 73
2018-11-03 16:00:00 8.6 0 Calma 9 Sudoeste 0 -- -- 60
2018-11-03 15:00:00 13 3 Sudoeste 12 Sur 0 -- -- 47
2018-11-03 14:00:00 13.5 4 Sur 10 Sur 0 -- -- 42
2018-11-03 13:00:00 13.1 0 Calma 5 Sudoeste 0 -- -- 47
2018-11-03 12:00:00 11.3 0 Calma 5 Este 0.2 -- -- 52
2018-11-03 11:00:00 6.4 3 Norte 5 Este 0 -- -- 57
2018-11-03 10:00:00 3.4 0 Calma 4 Oeste 0 -- -- 75
2018-11-03 09:00:00 1.3 0 Calma 4 Noroeste 0 -- -- 85
2018-11-03 08:00:00 0.8 2 Oeste 6 Oeste 0 -- -- 87
2018-11-03 07:00:00 0.8 3 Sudoeste 7 Sudoeste 0 -- -- 90
2018-11-03 06:00:00 0.5 3 Oeste 7 Oeste 0 -- -- 97
2018-11-03 05:00:00 0.5 0 Calma 8 Sudoeste 0 -- -- 100
2018-11-03 04:00:00 0.9 2 Noroeste 4 Oeste 0 -- -- 100
2018-11-03 03:00:00 1.1 0 Calma 5 Sudoeste 0 -- -- 100
2018-11-03 02:00:00 1.5 0 Calma 4 Oeste 0 -- -- 100
2018-11-03 01:00:00 1.8 0 Calma 4 Noroeste 0 -- -- 100
2018-11-03 00:00:00 2.1 0 Calma 4 Oeste 0 -- -- 100
2018-11-02 23:00:00 2.7 0 Calma 4 Oeste 0 -- -- 100
2018-11-02 22:00:00 2.4 0 Calma 5 Sudoeste 0 -- -- 100
2018-11-02 21:00:00 3.1 0 Calma 4 Este 0 -- -- 100
2018-11-02 20:00:00 3.9 0 Calma 4 Oeste 0 -- -- 100
2018-11-02 19:00:00 4.4 0 Calma 4 Oeste 0 -- -- 100
2018-11-02 18:00:00 5.4 0 Calma 3 Oeste 0 -- -- 98
2018-11-02 17:00:00 6.2 0 Calma 5 Sudoeste 0 -- -- 97
2018-11-02 16:00:00 8.1 0 Calma 10 Sudoeste 0 -- -- 92
2018-11-02 15:00:00 9.4 0 Calma 9 Sudoeste 0 -- -- 89
2018-11-02 14:00:00 11.4 4 Noroeste 6 Norte 0 -- -- 80
2018-11-02 13:00:00 8.3 2 Noroeste 4 Noroeste 0 -- -- 99
2018-11-02 12:00:00 6.4 0 Calma 4 Oeste 0.2 -- -- 100
2018-11-02 11:00:00 5.9 0 Calma 4 Oeste 0.4 -- -- 100
2018-11-02 10:00:00 5.5 0 Calma 4 Oeste 1 -- -- 100
2018-11-02 09:00:00 5.3 0 Calma 7 Este 0.6 -- -- 100
2018-11-02 08:00:00 5.6 3 Sudoeste 17 Noroeste 2.4 -- -- 98
2018-11-02 07:00:00 8.3 4 Norte 28 Noroeste 2.2 -- -- 91
2018-11-02 06:00:00 9.6 8 Noroeste 36 Oeste 0.8 -- -- 84
2018-11-02 05:00:00 7.1 11 Noroeste 26 Noroeste 1.2 -- -- 100
2018-11-02 04:00:00 4.8 3 Noroeste 13 Sudoeste 1.2 -- -- 100
2018-11-02 03:00:00 4.4 3 Oeste 10 Este 1.4 -- -- 100
2018-11-02 02:00:00 4.5 2 Sur 12 Noroeste 3 -- -- 100
2018-11-02 01:00:00 3.6 0 Calma 7 Noroeste 3.6 -- -- 100
2018-11-02 00:00:00 3.6 2 Norte 15 Noroeste 3.6 -- -- 99
2018-11-01 23:00:00 4.2 5 Noroeste 24 Oeste 3.8 -- -- 95
2018-11-01 22:00:00 4.2 5 Noroeste 22 Oeste 2.4 -- -- 97
2018-11-01 21:00:00 3.2 4 Noroeste 13 Sudoeste 1 -- -- 100
2018-11-01 20:00:00 3.1 3 Sudoeste 6 Este 0.6 -- -- 97
2018-11-01 19:00:00 4.4 3 Sudoeste 21 Sur 0 -- -- 88
2018-11-01 18:00:00 5.6 4 Este 24 Noroeste 0 -- -- 73
2018-11-01 17:00:00 6.3 4 Sur 14 Sur 0 -- -- 65
2018-11-01 16:00:00 7.8 4 Sur 15 Sur 0 -- -- 58
2018-11-01 15:00:00 8.3 8 Sur 23 Sur 0 -- -- 53
2018-11-01 14:00:00 7.2 3 Noroeste 10 Sur 0 -- -- 69
2018-11-01 13:00:00 7.3 0 Calma 12 Noroeste 0 -- -- 69
2018-11-01 12:00:00 7.3 3 Norte 9 Noroeste 0 -- -- 70
2018-11-01 11:00:00 5.9 4 Noroeste 12 Oeste 0 -- -- 78
2018-11-01 10:00:00 4 2 Noroeste 5 Noroeste 0 -- -- 87
2018-11-01 09:00:00 2.2 0 Calma 7 Noroeste 0 -- -- 97
2018-11-01 08:00:00 1.7 2 Sur 6 Sudoeste 0 -- -- 96
2018-11-01 07:00:00 2.6 0 Calma 20 Noroeste 0 -- -- 92
2018-11-01 06:00:00 4.3 13 Noroeste 26 Noroeste 0 -- -- 84
2018-11-01 05:00:00 1.9 3 Norte 11 Oeste 0 -- -- 94
2018-11-01 04:00:00 0.7 4 Noroeste 8 Oeste 0 -- -- 97
2018-11-01 03:00:00 0.6 0 Calma 6 Noroeste 0 -- -- 99
2018-11-01 02:00:00 0.7 0 Calma 5 Oeste 0 -- -- 98
2018-11-01 01:00:00 1.2 4 Sudoeste 17 Sudoeste 0 -- -- 99
2018-11-01 00:00:00 0.8 2 Norte 6 Oeste 0 -- -- 99
2018-10-31 23:00:00 1.2 3 Oeste 7 Oeste 0 -- -- 99
2018-10-31 22:00:00 1.6 0 Calma 12 Sudeste 0 -- -- 98
2018-10-31 21:00:00 2.1 0 Calma 4 Oeste 0 -- -- 98
2018-10-31 20:00:00 2.4 0 Calma 5 Oeste 0 -- -- 97
2018-10-31 19:00:00 2.5 0 Calma 4 Sudoeste 0 -- -- 96
2018-10-31 18:00:00 3.3 0 Calma 3 Oeste 0 -- -- 93
2018-10-31 17:00:00 4.4 0 Calma 3 Oeste 0 -- -- 88
2018-10-31 16:00:00 5.6 0 Calma 3 Noroeste 0 -- -- 83
2018-10-31 15:00:00 6 0 Calma 3 Noroeste 0 -- -- 80
2018-10-31 14:00:00 5.6 0 Calma 3 Noroeste 0 -- -- 83
2018-10-31 13:00:00 5.9 0 Calma 5 Norte 0 -- -- 82
2018-10-31 12:00:00 5.5 0 Calma 9 Sudoeste 0 -- -- 85
2018-10-31 11:00:00 4.8 0 Calma 5 Noroeste 0 -- -- 86
2018-10-31 10:00:00 2.7 0 Calma -- -- 0.2 -- -- 99
2018-10-31 09:00:00 1.7 0 Calma -- -- 0 -- -- 100
2018-10-31 08:00:00 1.3 0 Calma -- -- 0 -- -- 100
2018-10-31 07:00:00 1.4 0 Calma -- -- 0 -- -- 100
2018-10-31 06:00:00 1.4 0 Calma -- -- 0 -- -- 100
2018-10-31 05:00:00 1.2 0 Calma -- -- 0 -- -- 100
2018-10-31 04:00:00 1.2 0 Calma -- -- 0 -- -- 100
2018-10-31 03:00:00 1.1 0 Calma -- -- 0 -- -- 100
2018-10-31 02:00:00 1.1 0 Calma -- -- 0 -- -- 100
2018-10-31 01:00:00 1.2 0 Calma -- -- 0 -- -- 100
2018-10-31 00:00:00 1.4 0 Calma -- -- 0 -- -- 100
2018-10-30 23:00:00 1.5 0 Calma -- -- 0.2 -- -- 100
2018-10-30 22:00:00 1.6 0 Calma -- -- 0 -- -- 100
2018-10-30 21:00:00 1.5 0 Calma 2 Sudoeste 0 -- -- 99
2018-10-30 20:00:00 1.7 0 Calma 5 Oeste 0 -- -- 99
2018-10-30 19:00:00 1.8 2 Sudoeste 6 Noroeste 0 -- -- 98
2018-10-30 18:00:00 2.3 3 Sudoeste 6 Oeste 0 -- -- 96
2018-10-30 17:00:00 3.6 2 Sur 4 Sur 0 -- -- 91
2018-10-30 16:00:00 5.6 0 Calma 8 Sur 0 -- -- 82
2018-10-30 15:00:00 7.2 5 Noroeste 8 Noroeste 1.4 -- -- 71
2018-10-30 14:00:00 6.2 4 Noroeste 15 Sur 2 -- -- 76
2018-10-30 13:00:00 5.5 5 Sur 17 Sudeste 2.6 -- -- 76
2018-10-30 12:00:00 5.9 4 Sur 13 Oeste 2.8 -- -- 77
2018-10-30 11:00:00 3.5 2 Sudoeste 10 Sur 1.4 -- -- 91
2018-10-30 10:00:00 2.3 3 Sudoeste 10 Este 0.8 -- -- 94
2018-10-30 09:00:00 1.2 4 Sudeste 24 Sudeste 0.4 -- -- 97
2018-10-30 08:00:00 1.7 8 Sur 24 Sur 0.6 -- -- 91
2018-10-30 07:00:00 2.1 10 Sur 28 Sur 0.2 -- -- 88
2018-10-30 06:00:00 1.2 3 Sur 20 Sur 0.6 -- -- 96
2018-10-30 05:00:00 1.6 4 Sur 27 Sudoeste 0.8 -- -- 92
2018-10-30 04:00:00 1.9 7 Este 26 Oeste 0.4 -- -- 86
2018-10-30 03:00:00 2.1 11 Sur 32 Sudoeste 0.2 -- -- 85
2018-10-30 02:00:00 1.3 6 Sur 27 Este 0.2 -- -- 93
2018-10-30 01:00:00 1.2 11 Sur 24 Sur 0 -- -- 91
2018-10-30 00:00:00 0.1 3 Sudoeste 8 Noroeste 0 -- -- 100
2018-10-29 23:00:00 0 0 Calma 5 Noroeste 0 -- -- 100
2018-10-29 22:00:00 0.1 2 Sudoeste 6 Oeste 0.2 -- -- 100
2018-10-29 21:00:00 0.1 0 Calma 4 Noroeste 0 -- -- 100
2018-10-29 20:00:00 0.1 0 Calma 4 Noroeste 0.2 -- -- 100
2018-10-29 19:00:00 0.2 0 Calma 4 Oeste 0.2 -- -- 99
2018-10-29 18:00:00 0.4 0 Calma 4 Noroeste 0.6 -- -- 98
2018-10-29 17:00:00 0.8 0 Calma 8 Sur 1.2 -- -- 97
2018-10-29 16:00:00 1.5 3 Sudeste 9 Noroeste 2.8 -- -- 93
2018-10-29 15:00:00 1.5 3 Noroeste 8 Sudeste 1.8 -- -- 92
2018-10-29 14:00:00 2.7 0 Calma 8 Este 1.8 -- -- 85
2018-10-29 13:00:00 2.5 4 Sur 14 Noroeste 1.2 -- -- 85
2018-10-29 12:00:00 0.9 0 Calma 4 Noroeste 0.4 -- -- 93
2018-10-29 11:00:00 0.6 2 Norte 14 Sudoeste 0.2 -- -- 91
2018-10-29 10:00:00 0.2 3 Sur 21 Sudoeste 0 -- -- 91
2018-10-29 09:00:00 0.1 3 Oeste 24 Este 0.2 -- -- 86
2018-10-29 08:00:00 0.1 4 Oeste 17 Noroeste 0 -- -- 81
2018-10-29 07:00:00 0.2 3 Sudoeste 17 Oeste 0 -- -- 88
2018-10-29 06:00:00 0.6 4 Sudoeste 22 Sudoeste 0 -- -- 84
2018-10-29 05:00:00 0.5 5 Noroeste 16 Oeste 0 -- -- 87
2018-10-29 04:00:00 0.6 4 Nordeste 24 Noroeste 0 -- -- 89
2018-10-29 03:00:00 0.5 7 Noroeste 24 Noroeste 0 -- -- 95
2018-10-29 02:00:00 0.4 5 Noroeste 20 Norte 0 -- -- 94
2018-10-29 01:00:00 -0.1 0 Calma 4 Norte -- -- -- 100
2018-10-29 00:00:00 -0.3 -- -- 12 Norte -- -- -- 100
2018-10-28 23:00:00 -0.6 -- -- -- -- -- -- -- 100
2018-10-28 22:00:00 -0.8 -- -- -- -- -- -- -- 100
2018-10-28 21:00:00 -0.8 -- -- -- -- -- -- -- 100
2018-10-28 20:00:00 -0.7 -- -- 5 Norte -- -- -- 99
2018-10-28 19:00:00 -0.6 -- -- 9 Norte -- -- -- 98
2018-10-28 18:00:00 -0.3 -- -- 6 Norte -- -- -- 97
2018-10-28 17:00:00 0.1 -- -- 8 Norte -- -- -- 97
2018-10-28 16:00:00 -0.2 -- -- 6 Noroeste -- -- -- 97
2018-10-28 15:00:00 0.6 3 Noroeste 8 Este -- -- -- 93
2018-10-28 14:00:00 1.1 3 Nordeste -- -- -- -- -- 91
2018-10-28 13:00:00 0.6 -- -- -- -- 0.6 -- -- 96
2018-10-28 12:00:00 1.1 0 Calma 0 Calma 0 -- -- 93
2018-10-28 11:00:00 -0.2 0 Calma 0 Calma 0 -- -- 98
2018-10-28 10:00:00 -0.9 0 Calma 8 Norte 0 -- -- 99
2018-10-28 09:00:00 -1 4 Norte 11 Norte 0 -- -- 100
2018-10-28 08:00:00 -1.1 4 Norte 9 Norte 0 -- -- 100
2018-10-28 07:00:00 -0.7 3 Norte 9 Norte 0 -- -- 100
2018-10-28 06:00:00 -0.6 0 Calma 2 Norte 0 -- -- 100
2018-10-28 05:00:00 -0.7 0 Calma 6 Norte 0 -- -- 100
2018-10-28 04:00:00 -0.9 0 Calma 3 Norte 0 -- -- 100
2018-10-28 03:00:00 -0.7 0 Calma 3 Norte 0 -- -- 100
2018-10-28 02:00:00 -0.7 0 Calma 5 Norte 0.2 -- -- 100
2018-10-28 01:00:00 -0.6 0 Calma 3 Este 0 -- -- 100
2018-10-28 00:00:00 -0.5 0 Calma 3 Noroeste 0 -- -- 100
2018-10-27 23:00:00 -0.5 2 Noroeste 3 Noroeste 0 -- -- 100
2018-10-27 22:00:00 -0.3 0 Calma 5 Oeste 0 -- -- 100
2018-10-27 21:00:00 0.1 2 Oeste 5 Noroeste 0 -- -- 100
2018-10-27 20:00:00 0 0 Calma 5 Sur 0.2 -- -- 100
2018-10-27 19:00:00 0.3 0 Calma 4 Sudeste 0 -- -- 99
2018-10-27 18:00:00 0.8 0 Calma 5 Este 0.2 -- -- 97
2018-10-27 17:00:00 1.6 3 Noroeste 5 Este 0.8 -- -- 97
2018-10-27 16:00:00 2 2 Oeste 5 Nordeste 0.4 -- -- 92
2018-10-27 15:00:00 2.4 3 Sudoeste 12 Este 0.4 -- -- 89
2018-10-27 14:00:00 3.4 0 Calma 8 Noroeste 1.6 -- -- 95
2018-10-27 13:00:00 2.6 3 Oeste 5 Oeste 2 -- -- 97
2018-10-27 12:00:00 1.2 0 Calma 4 Noroeste 0.6 -- -- 99
2018-10-27 11:00:00 0.5 0 Calma 4 Norte 0.2 -- -- 99
2018-10-27 10:00:00 0.7 2 Noroeste 4 Noroeste 0.2 -- -- 99
2018-10-27 09:00:00 1.3 3 Noroeste 5 Noroeste 1 -- -- 98
2018-10-27 08:00:00 2.1 2 Este 5 Noroeste 0.8 -- -- 98
2018-10-27 07:00:00 2.7 2 Sur 6 Este 0.8 -- -- 96
2018-10-27 06:00:00 3.3 0 Calma 6 Oeste 0.2 -- -- 95
2018-10-27 05:00:00 4 3 Sur 10 Sur 0.4 -- -- 97
2018-10-27 04:00:00 4.7 4 Sudoeste 8 Sur 0.2 -- -- 94
2018-10-27 03:00:00 5.8 4 Sur 12 Sur 0.6 -- -- 98
2018-10-27 02:00:00 6.4 0 Calma 5 Oeste 0.4 -- -- 99
2018-10-27 01:00:00 6.8 3 Sudoeste 6 Sudoeste 0.2 -- -- 98
2018-10-27 00:00:00 7.2 2 Este 10 Este 0.2 -- -- 93
2018-10-26 23:00:00 8 3 Sudoeste 8 Noroeste 0.6 -- -- 97
2018-10-26 22:00:00 8.6 3 Sudoeste 6 Sudoeste 0.2 -- -- 97
2018-10-26 21:00:00 9.1 0 Calma 5 Este 0 -- -- 93
2018-10-26 20:00:00 9.4 3 Sudoeste 9 Nordeste 0 -- -- 91
2018-10-26 19:00:00 10.1 3 Este 10 Este 0 -- -- 81
2018-10-26 18:00:00 10.4 2 Sudoeste 6 Sur 0 -- -- 88
2018-10-26 17:00:00 10.9 3 Sur 12 Sudoeste 0 -- -- 88
2018-10-26 16:00:00 11.5 3 Sudoeste 13 Sudoeste 0 -- -- 86
2018-10-26 15:00:00 12.5 3 Sudeste 10 Sur 0 -- -- 78
2018-10-26 14:00:00 12.8 3 Sur 9 Sur 0 -- -- 74
2018-10-26 13:00:00 13.1 2 Sudeste 9 Este 0 -- -- 71
2018-10-26 12:00:00 12.2 3 Este 8 Nordeste 0 -- -- 69
2018-10-26 11:00:00 10.2 4 Sur 10 Sudoeste 0 -- -- 75
2018-10-26 10:00:00 8.4 0 Calma 6 Sudoeste 0 -- -- 78
2018-10-26 09:00:00 8.6 2 Noroeste 6 Sudoeste 0 -- -- 71
2018-10-26 08:00:00 8.9 2 Oeste 5 Sudoeste 0 -- -- 65
2018-10-26 07:00:00 8.5 2 Oeste 5 Sur 0 -- -- 75
2018-10-26 06:00:00 8.8 0 Calma 5 Sudoeste 0 -- -- 72
2018-10-26 05:00:00 8.6 0 Calma 4 Sudoeste 0 -- -- 75
2018-10-26 04:00:00 8.7 0 Calma 5 Sur 0 -- -- 85
2018-10-26 03:00:00 8.7 0 Calma 5 Sudoeste 0 -- -- 88
2018-10-26 02:00:00 8.6 4 Oeste 6 Noroeste 0 -- -- 93
2018-10-26 01:00:00 8.6 0 Calma 4 Sur 0 -- -- 91
2018-10-26 00:00:00 8.9 0 Calma 2 Sudoeste 0 -- -- 93
2018-10-25 23:00:00 9.2 0 Calma 4 Sudoeste 0 -- -- 94
2018-10-25 22:00:00 9.7 0 Calma 3 Oeste 0 -- -- 91
2018-10-25 21:00:00 10.1 0 Calma 5 Sudoeste 0 -- -- 88
2018-10-25 20:00:00 11.1 0 Calma 6 Sudoeste 0 -- -- 86
2018-10-25 19:00:00 12.8 0 Calma 5 Sudoeste 0 -- -- 79
2018-10-25 18:00:00 15.3 3 Oeste 9 Sudoeste 0 -- -- 66
2018-10-25 17:00:00 19.2 4 Sudoeste 10 Sudoeste 0 -- -- 49
2018-10-25 16:00:00 20.7 3 Sudoeste 10 Sur 0 -- -- 46
2018-10-25 15:00:00 20.2 4 Sur 12 Sudeste 0 -- -- 47
2018-10-25 14:00:00 19.4 3 Sudeste 11 Sudoeste 0 -- -- 49
2018-10-25 13:00:00 18 4 Sur 9 Este 0 -- -- 54
2018-10-25 12:00:00 13.5 3 Este 6 Este 0 -- -- 75
2018-10-25 11:00:00 10.5 0 Calma 2 Nordeste 0 -- -- 85
2018-10-25 10:00:00 8.4 0 Calma 3 Sudoeste 0 -- -- 88
2018-10-25 09:00:00 8.4 0 Calma 6 Sudoeste 0 -- -- 86
2018-10-25 08:00:00 8.4 2 Sudoeste 5 Sudoeste 0 -- -- 87
2018-10-25 07:00:00 8.4 2 Sudoeste 4 Oeste 0 -- -- 90
2018-10-25 06:00:00 8.3 0 Calma 5 Oeste 0 -- -- 90
2018-10-25 05:00:00 8.5 0 Calma 3 Sudoeste 0 -- -- 91
2018-10-25 04:00:00 8.5 0 Calma 4 Oeste 0 -- -- 91
2018-10-25 03:00:00 8.5 0 Calma 5 Oeste 0 -- -- 87
2018-10-25 02:00:00 8.5 0 Calma 4 Oeste 0 -- -- 81
2018-10-25 01:00:00 8.7 0 Calma 0 Calma 0 -- -- 72
2018-10-25 00:00:00 9 0 Calma 0 Calma 0 -- -- 65
2018-10-24 23:00:00 8.9 0 Calma 0 Calma 0 -- -- 66
2018-10-24 22:00:00 9 0 Calma 0 Calma 0 -- -- 61
2018-10-24 21:00:00 9.6 0 Calma 4 Sudoeste 0 -- -- 59
2018-10-24 20:00:00 10.4 0 Calma 6 Oeste 0 -- -- 49
2018-10-24 19:00:00 11.4 0 Calma 8 Oeste 0 -- -- 47
2018-10-24 18:00:00 13.4 4 Sudoeste 8 Oeste 0 -- -- 45
2018-10-24 17:00:00 18.8 2 Sudoeste 10 Sudoeste 0 -- -- 30
2018-10-24 16:00:00 19.9 3 Sur 10 Sudoeste 0 -- -- 20
2018-10-24 15:00:00 19.6 3 Sudoeste 12 Sudeste 0 -- -- 24
2018-10-24 14:00:00 19 5 Sur 13 Sudeste 0 -- -- 27
2018-10-24 13:00:00 17.9 4 Sur 10 Sudoeste 0 -- -- 27
2018-10-24 12:00:00 12.8 3 Sudeste 8 Nordeste 0 -- -- 53
2018-10-24 11:00:00 10.3 0 Calma 3 Sudeste 0 -- -- 47
2018-10-24 10:00:00 7.2 0 Calma 7 Sudoeste 0 -- -- 53
2018-10-24 09:00:00 6 2 Oeste 6 Oeste 0 -- -- 55
2018-10-24 08:00:00 5.8 2 Oeste 7 Oeste 0 -- -- 46
2018-10-24 07:00:00 5.6 3 Sudoeste 6 Oeste 0 -- -- 51
2018-10-24 06:00:00 5.6 0 Calma 6 Noroeste 0 -- -- 55
2018-10-24 05:00:00 5.6 0 Calma 5 Sur 0 -- -- 53
2018-10-24 04:00:00 5.7 0 Calma 6 Sudoeste 0 -- -- 58
2018-10-24 03:00:00 5.5 2 Oeste 6 Oeste 0 -- -- 65
2018-10-24 02:00:00 6.3 0 Calma 7 Sudoeste 0 -- -- 70
2018-10-24 01:00:00 6.1 2 Sudoeste 8 Sudoeste 0 -- -- 81
2018-10-24 00:00:00 6.1 0 Calma 7 Sudoeste 0 -- -- 84
2018-10-23 23:00:00 6.7 2 Oeste 6 Sudoeste 0 -- -- 84
2018-10-23 22:00:00 7.5 2 Oeste 8 Sudoeste 0 -- -- 78
2018-10-23 21:00:00 8.1 0 Calma 6 Oeste 0 -- -- 81
2018-10-23 20:00:00 9 2 Oeste 5 Sudoeste 0 -- -- 85
2018-10-23 19:00:00 10.5 2 Sur 6 Oeste 0 -- -- 81
2018-10-23 18:00:00 13 3 Sudoeste 10 Sudoeste 0 -- -- 71
2018-10-23 17:00:00 16.4 4 Sudoeste 10 Sudoeste 0 -- -- 56
2018-10-23 16:00:00 16.5 3 Oeste 13 Sur 0 -- -- 58
2018-10-23 15:00:00 15.8 4 Sudoeste 12 Sur 0 -- -- 58
2018-10-23 14:00:00 15.7 5 Sudoeste 14 Sudoeste 0 -- -- 60
2018-10-23 13:00:00 15.2 2 Oeste 8 Este 0 -- -- 59
2018-10-23 12:00:00 10.4 4 Este 8 Este -- -- -- 76
2018-10-23 11:00:00 8.5 3 Sudeste 9 Este 0 -- -- 85
2018-10-23 10:00:00 5.8 0 Calma 4 Sur 0 -- -- 95
2018-10-23 09:00:00 4.8 0 Calma 8 Sudoeste 0 -- -- 97
2018-10-23 08:00:00 4.5 2 Noroeste 5 Sudoeste 0 -- -- 98
2018-10-23 07:00:00 4.7 0 Calma 3 Sudoeste 0 -- -- 99
2018-10-23 06:00:00 4.7 2 Oeste 5 Noroeste 0 -- -- 98
2018-10-23 05:00:00 4.8 0 Calma 4 Sudoeste 0 -- -- 97
2018-10-23 04:00:00 5.1 0 Calma 4 Sudoeste 0 -- -- 96
2018-10-23 03:00:00 6.2 0 Calma 4 Noroeste 0 -- -- 96
2018-10-23 02:00:00 7.1 2 Sudoeste 5 Noroeste 0 -- -- 96
2018-10-23 01:00:00 7.5 0 Calma 6 Sudoeste 0 -- -- 94
2018-10-23 00:00:00 7.8 0 Calma 7 Sudoeste 0 -- -- 92
2018-10-22 23:00:00 7.9 3 Sur 8 Sudoeste 0 -- -- 91
2018-10-22 22:00:00 8.3 0 Calma 4 Sudoeste 0 -- -- 88
2018-10-22 21:00:00 8.9 3 Sudoeste 10 Sudoeste 0 -- -- 83
2018-10-22 20:00:00 9.3 3 Sur 10 Sur 0 -- -- 79
2018-10-22 19:00:00 10.1 3 Sudoeste 13 Sudoeste 0 -- -- 72
2018-10-22 18:00:00 11.5 6 Oeste 18 Sudoeste 0 -- -- 59
2018-10-22 17:00:00 13.1 6 Sudoeste 17 Oeste 0 -- -- 57
2018-10-22 16:00:00 13.5 7 Sudoeste 21 Sur 0 -- -- 61
2018-10-22 15:00:00 14.2 6 Sudoeste 26 Sudeste 0 -- -- 64
2018-10-22 14:00:00 13.9 5 Este 16 Sudeste 0 -- -- 64
2018-10-22 13:00:00 13.5 4 Nordeste 16 Sur 0 -- -- 59
2018-10-22 12:00:00 9.8 2 Este 8 Este 0 -- -- 84
2018-10-22 11:00:00 7.1 0 Calma 5 Noroeste 0 -- -- 100
2018-10-22 10:00:00 5.5 0 Calma 5 Noroeste 0 -- -- 100
2018-10-22 09:00:00 4.9 0 Calma 5 Este 0 -- -- 99
2018-10-22 08:00:00 5.7 0 Calma 3 Sur 0 -- -- 99
2018-10-22 07:00:00 6.4 0 Calma 4 Oeste 0 -- -- 98
2018-10-22 06:00:00 6.9 0 Calma 3 Oeste 0 -- -- 98
2018-10-22 05:00:00 7.5 0 Calma 2 Sudoeste 0 -- -- 98
2018-10-22 04:00:00 7.9 0 Calma 3 Sudoeste 0 -- -- 97
2018-10-22 03:00:00 8.3 0 Calma 4 Oeste 0 -- -- 96
2018-10-22 02:00:00 8.7 0 Calma 4 Oeste 0 -- -- 96
2018-10-22 01:00:00 9 0 Calma 3 Sudoeste 0 -- -- 95
2018-10-22 00:00:00 9.5 0 Calma 4 Sudoeste 0 -- -- 94
2018-10-21 23:00:00 9.9 0 Calma 3 Oeste 0 -- -- 95
2018-10-21 22:00:00 10.2 0 Calma 4 Oeste 0 -- -- 95
2018-10-21 21:00:00 10.7 0 Calma 5 Sudoeste 0 -- -- 92
2018-10-21 20:00:00 11.7 2 Oeste 4 Sudoeste 0 -- -- 84
2018-10-21 19:00:00 13.3 0 Calma 5 Sudoeste 0 -- -- 80
2018-10-21 18:00:00 15.5 2 Sudoeste 6 Oeste 0 -- -- 71
2018-10-21 17:00:00 19.7 3 Oeste 10 Sudoeste 0 -- -- 53
2018-10-21 16:00:00 20.2 4 Sudoeste 12 Sur 0 -- -- 49
2018-10-21 15:00:00 20.4 3 Sudoeste 10 Sudoeste 0 -- -- 53
2018-10-21 14:00:00 19.9 4 Sudeste 13 Sudoeste 0 -- -- 52
2018-10-21 13:00:00 18.8 5 Sur 10 Sudoeste 0 -- -- 61
2018-10-21 12:00:00 14.4 0 Calma 5 Este 0 -- -- 77
2018-10-21 11:00:00 11.4 0 Calma 4 Este 0 -- -- 91
2018-10-21 10:00:00 9.1 2 Noroeste 7 Noroeste 0 -- -- 95
2018-10-21 09:00:00 8.6 2 Sudoeste 5 Oeste 0 -- -- 96
2018-10-21 08:00:00 8.7 0 Calma 4 Oeste 0 -- -- 96
2018-10-21 07:00:00 8.8 0 Calma 4 Noroeste 0 -- -- 98
2018-10-21 06:00:00 8.8 2 Oeste 5 Noroeste 0 -- -- 98
2018-10-21 05:00:00 8.8 2 Oeste 6 Oeste 0 -- -- 98
2018-10-21 04:00:00 8.8 0 Calma 5 Noroeste 0 -- -- 97
2018-10-21 03:00:00 8.9 2 Sudoeste 5 Oeste 0 -- -- 98
2018-10-21 02:00:00 8.9 0 Calma 5 Sudoeste 0 -- -- 97
2018-10-21 01:00:00 8.9 2 Noroeste 7 Noroeste 0 -- -- 98
2018-10-21 00:00:00 9 0 Calma 5 Noroeste 0 -- -- 96
2018-10-20 23:00:00 9.4 0 Calma 6 Sudoeste 0 -- -- 96
2018-10-20 22:00:00 9.9 2 Sudoeste 6 Noroeste 0 -- -- 94
2018-10-20 21:00:00 10.2 4 Sudoeste 10 Noroeste 0 -- -- 95
2018-10-20 20:00:00 10.8 3 Sudoeste 6 Noroeste 0 -- -- 93
2018-10-20 19:00:00 12.1 2 Sudoeste 5 Oeste 0 -- -- 89
2018-10-20 18:00:00 14.2 2 Sudoeste 4 Sur 0 -- -- 82
2018-10-20 17:00:00 15.6 2 Sudoeste 9 Este 0 -- -- 74
2018-10-20 16:00:00 16 4 Sudeste 10 Este 0 -- -- 68
2018-10-20 15:00:00 17.5 3 Sudeste 9 Sudoeste 0 -- -- 65
2018-10-20 14:00:00 15.7 2 Sudoeste 8 Nordeste 0.2 -- -- 72
2018-10-20 13:00:00 11.4 0 Calma 5 Noroeste 0 -- -- 79
2018-10-20 12:00:00 9.2 4 Oeste 9 Noroeste 0 -- -- 91
2018-10-20 11:00:00 8.4 0 Calma 4 Sudoeste 0 -- -- 95
2018-10-20 10:00:00 7 3 Oeste 7 Noroeste 0 -- -- 97
2018-10-20 09:00:00 6.7 2 Sur 7 Oeste 0 -- -- 97
2018-10-20 08:00:00 5.9 0 Calma 5 Oeste 0 -- -- 100
2018-10-20 07:00:00 5.8 3 Oeste 5 Noroeste 0 -- -- 99
2018-10-20 06:00:00 6 0 Calma 5 Oeste 0 -- -- 98
2018-10-20 05:00:00 6.3 0 Calma 5 Oeste 0 -- -- 97
2018-10-20 04:00:00 6.6 0 Calma 5 Sudoeste 0 -- -- 97
2018-10-20 03:00:00 6.8 0 Calma 5 Oeste 0 -- -- 98
2018-10-20 02:00:00 7.1 2 Sudoeste 5 Oeste 0 -- -- 98
2018-10-20 01:00:00 8.1 0 Calma 5 Noroeste 0 -- -- 97
2018-10-20 00:00:00 9.5 3 Oeste 8 Oeste 0 -- -- 98
2018-10-19 23:00:00 10.3 3 Norte 10 Este 0 -- -- 98
2018-10-19 22:00:00 10.7 3 Noroeste 10 Sur 0 -- -- 98
2018-10-19 21:00:00 10.8 0 Calma 3 Oeste 0 -- -- 98
2018-10-19 20:00:00 11.4 0 Calma 4 Sudoeste 0 -- -- 96
2018-10-19 19:00:00 12.2 0 Calma 6 Sudoeste 0 -- -- 93
2018-10-19 18:00:00 12.5 0 Calma 3 Oeste 0 -- -- 91
2018-10-19 17:00:00 12.1 0 Calma 5 Sudoeste 0 -- -- 93
2018-10-19 16:00:00 12.2 0 Calma 13 Sudoeste 0 -- -- 93
2018-10-19 15:00:00 13.6 3 Noroeste 11 Nordeste 0 -- -- 87
2018-10-19 14:00:00 13.3 3 Sudoeste 8 Oeste 0 -- -- 89
2018-10-19 13:00:00 12.3 4 Noroeste 9 Sudoeste 0 -- -- 94
2018-10-19 12:00:00 10.9 0 Calma 5 Oeste 0 -- -- 97
2018-10-19 11:00:00 10.3 0 Calma 5 Sudoeste 0 -- -- 99
2018-10-19 10:00:00 9.6 2 Sudeste 5 Oeste 0 -- -- 100
2018-10-19 09:00:00 9.2 2 Sudoeste 6 Noroeste 0 -- -- 99
2018-10-19 08:00:00 9.6 0 Calma 6 Sudoeste 0 -- -- 100
2018-10-19 07:00:00 9.7 2 Este 5 Sudoeste 0 -- -- 100
2018-10-19 06:00:00 9.8 0 Calma 5 Oeste 0 -- -- 100
2018-10-19 05:00:00 10 0 Calma 8 Oeste 0 -- -- 100
2018-10-19 04:00:00 10.1 2 Sudoeste 5 Sur 0 -- -- 100
2018-10-19 03:00:00 10.2 0 Calma 12 Sudoeste 0 -- -- 100
2018-10-19 02:00:00 10.5 4 Sudoeste 11 Sudoeste 0 -- -- 100
2018-10-19 01:00:00 10.6 0 Calma 6 Sudoeste 0 -- -- 100
2018-10-19 00:00:00 10.4 0 Calma 3 Noroeste 0 -- -- 100
2018-10-18 23:00:00 10.3 0 Calma 4 Sudoeste 0 -- -- 100
2018-10-18 22:00:00 10 0 Calma 10 Oeste 0.2 -- -- 100
2018-10-18 21:00:00 10 2 Sudeste 9 Oeste 0.4 -- -- 99
2018-10-18 20:00:00 10.3 0 Calma 7 Sudoeste 0.2 -- -- 98
2018-10-18 19:00:00 10.5 3 Sudoeste 7 Sudoeste 0.6 -- -- 97
2018-10-18 18:00:00 11.3 2 Sudoeste 8 Oeste 0.2 -- -- 92
2018-10-18 17:00:00 12.6 2 Sudoeste 7 Sudoeste 0 -- -- 81
2018-10-18 16:00:00 12.8 0 Calma 10 Noroeste 0 -- -- 78
2018-10-18 15:00:00 11.9 3 Noroeste 9 Noroeste 0 -- -- 85
2018-10-18 14:00:00 11.2 3 Norte 6 Noroeste 0 -- -- 90
2018-10-18 13:00:00 10.2 0 Calma 9 Sudoeste 0 -- -- 96
2018-10-18 12:00:00 9.8 2 Oeste 6 Sudoeste 0 -- -- 98
2018-10-18 11:00:00 9.6 0 Calma 3 Sur 0 -- -- 99
2018-10-18 10:00:00 9.3 0 Calma 3 Este 0 -- -- 99
2018-10-18 09:00:00 9.1 0 Calma 3 Sur 0.4 -- -- 99
2018-10-18 08:00:00 9 0 Calma 3 Sur 0 -- -- 98
2018-10-18 07:00:00 9 0 Calma 5 Norte 0 -- -- 97
2018-10-18 06:00:00 9.1 0 Calma 5 Noroeste 0 -- -- 96
2018-10-18 05:00:00 9 2 Sudoeste 5 Norte 0 -- -- 95
2018-10-18 04:00:00 9.1 2 Sudoeste 5 Noroeste 0 -- -- 94
2018-10-18 03:00:00 9.2 0 Calma 5 Oeste 0 -- -- 94
2018-10-18 02:00:00 9.2 0 Calma 6 Sudoeste 0 -- -- 94
2018-10-18 01:00:00 9.4 3 Sudoeste 7 Sur 0 -- -- 96
2018-10-18 00:00:00 9.8 0 Calma 5 Sudoeste 0 -- -- 94